Time;durP1;ratioP1;P1;durP2;ratioP2;P2;SDS_P1;SDS_P2;PMS_P1;PMS_P2;Temp;Humidity;BMP_temperature;BMP_pressure;BME280_temperature;BME280_humidity;BME280_pressure;Samples;Min_cycle;Max_cycle;Signal;HPM_P1;HPM_P2
2020/01/15 00:01:37;;;;;;;17.4;10.4;;;;;;;1.92;61.56738;940.4575;;;;
2020/01/15 00:04:02;;;;;;;13.5;6.7;;;;;;;1.79;61.90723;940.515;;;;
2020/01/15 00:06:28;;;;;;;12.6;6.2;;;;;;;1.67;62.32617;940.4877;;;;
2020/01/15 00:08:53;;;;;;;13.5;7.2;;;;;;;1.72;62.73535;940.5586;;;;
2020/01/15 00:11:18;;;;;;;16.6;7.8;;;;;;;1.63;62.61035;940.3986;;;;
2020/01/15 00:13:43;;;;;;;15.5;7.9;;;;;;;1.65;62.79199;940.4356;;;;
2020/01/15 00:16:08;;;;;;;16.4;8.1;;;;;;;1.61;63.30078;940.5028;;;;
2020/01/15 00:18:34;;;;;;;11.4;6.5;;;;;;;1.42;63.78613;940.5217;;;;
2020/01/15 00:20:59;;;;;;;11.7;6.5;;;;;;;1.31;64.08398;940.5023;;;;
2020/01/15 00:23:26;;;;;;;10.3;5.9;;;;;;;1.25;63.63672;940.4506;;;;
2020/01/15 00:28:29;;;;;;;11;6.5;;;;;;;1.13;64.91504;940.3324;;;;
2020/01/15 00:30:41;;;;;;;13.9;7.2;;;;;;;1.06;65.53027;940.3781;;;;
2020/01/15 00:33:05;;;;;;;10.5;6.2;;;;;;;1;65.08496;940.2546;;;;
2020/01/15 00:35:30;;;;;;;8.4;5.2;;;;;;;1.07;64.26953;940.3103;;;;
2020/01/15 00:37:55;;;;;;;6.7;4.2;;;;;;;1.29;62.06836;940.2918;;;;
2020/01/15 00:40:21;;;;;;;7.5;4.3;;;;;;;1.47;62.11719;940.2276;;;;
2020/01/15 00:42:46;;;;;;;17.9;5.1;;;;;;;1.5;62.63574;940.2422;;;;
2020/01/15 00:45:11;;;;;;;8.1;5;;;;;;;1.36;63.64355;940.222;;;;
2020/01/15 00:47:36;;;;;;;9.1;4.8;;;;;;;1.28;64.00098;940.2358;;;;
2020/01/15 00:50:02;;;;;;;9.7;5.3;;;;;;;1.22;63.95703;940.2626;;;;
2020/01/15 00:52:27;;;;;;;13.3;7;;;;;;;1.17;63.92773;940.2282;;;;
2020/01/15 00:54:52;;;;;;;9.4;5.4;;;;;;;1.18;63.5166;940.2755;;;;
2020/01/15 00:57:17;;;;;;;13.2;8.2;;;;;;;1.16;62.86523;940.3036;;;;
2020/01/15 00:59:43;;;;;;;11;6.4;;;;;;;1.25;62.53223;940.2202;;;;
2020/01/15 01:02:25;;;;;;;6.3;4;;;;;;;1.37;61.60059;940.2394;;;;
2020/01/15 01:04:50;;;;;;;5.8;3.6;;;;;;;1.46;61.46777;940.315;;;;
2020/01/15 01:07:20;;;;;;;6.7;3.8;;;;;;;1.4;62.11914;940.308;;;;
2020/01/15 01:09:43;;;;;;;6.3;3.8;;;;;;;1.39;62.09375;940.2912;;;;
2020/01/15 01:17:03;;;;;;;5.1;3.4;;;;;;;1.21;62.81738;940.2452;;;;
2020/01/15 01:19:20;;;;;;;13;5.5;;;;;;;1.16;62.87598;940.2821;;;;
2020/01/15 01:21:46;;;;;;;7.3;4.4;;;;;;;1.21;62.92773;940.3259;;;;
2020/01/15 01:24:11;;;;;;;5.1;3.4;;;;;;;1.25;62.72168;940.2541;;;;
2020/01/15 01:26:36;;;;;;;9.8;3.9;;;;;;;1.25;62.92285;940.3403;;;;
2020/01/15 01:29:01;;;;;;;6.9;3.8;;;;;;;1.17;63.71387;940.3484;;;;
2020/01/15 01:31:41;;;;;;;5.3;3.4;;;;;;;1.11;63.70605;940.295;;;;
2020/01/15 01:33:51;;;;;;;7.5;3.5;;;;;;;1.06;63.36426;940.3333;;;;
2020/01/15 01:36:17;;;;;;;6.4;3.4;;;;;;;1.19;63.11523;940.3111;;;;
2020/01/15 01:38:42;;;;;;;5.4;3.5;;;;;;;1.19;63.09375;940.3349;;;;
2020/01/15 01:41:07;;;;;;;5.9;3.4;;;;;;;1.17;63.32617;940.3401;;;;
2020/01/15 01:43:33;;;;;;;5.9;3.4;;;;;;;1.17;63.25781;940.3472;;;;
2020/01/15 01:45:58;;;;;;;4;2.8;;;;;;;1.2;63.05078;940.353;;;;
2020/01/15 01:48:23;;;;;;;4.4;2.8;;;;;;;1.29;61.4541;940.3334;;;;
2020/01/15 01:50:49;;;;;;;5.5;3.4;;;;;;;1.35;62.53613;940.3205;;;;
2020/01/15 01:53:14;;;;;;;6.3;3.9;;;;;;;1.3;62.89648;940.329;;;;
2020/01/15 01:55:39;;;;;;;11.4;3.4;;;;;;;1.37;62.49316;940.2918;;;;
2020/01/15 01:58:04;;;;;;;5.1;3.4;;;;;;;1.37;62.72852;940.2759;;;;
2020/01/15 02:00:29;;;;;;;7.5;3.7;;;;;;;1.26;63.47168;940.2567;;;;
2020/01/15 02:02:54;;;;;;;6.5;3.6;;;;;;;1.16;63.15527;940.2006;;;;
2020/01/15 02:05:19;;;;;;;7;3.6;;;;;;;1.14;63.30957;940.1716;;;;
2020/01/15 02:07:45;;;;;;;5.5;3.2;;;;;;;1.18;63.30371;940.1278;;;;
2020/01/15 02:10:10;;;;;;;4.9;3.3;;;;;;;1.15;63.06445;940.1878;;;;
2020/01/15 02:12:36;;;;;;;4.6;3.3;;;;;;;1.18;63.23633;940.2015;;;;
2020/01/15 02:15:00;;;;;;;6;3.6;;;;;;;1.13;63.36328;940.2015;;;;
2020/01/15 02:17:26;;;;;;;5.4;3.7;;;;;;;1.11;63.63867;940.1881;;;;
2020/01/15 02:19:51;;;;;;;5.5;2.9;;;;;;;1.09;62.70898;940.199;;;;
2020/01/15 02:22:16;;;;;;;4.9;3.1;;;;;;;1.18;62.36523;940.0707;;;;
2020/01/15 02:24:41;;;;;;;4.7;2.6;;;;;;;1.3;61.01953;940.1323;;;;
2020/01/15 02:27:06;;;;;;;3.7;2.4;;;;;;;1.34;60.88086;940.0591;;;;
2020/01/15 02:29:31;;;;;;;4.5;2.7;;;;;;;1.38;61.91504;940.0161;;;;
2020/01/15 02:31:57;;;;;;;5.5;2.8;;;;;;;1.31;62.59766;940.0059;;;;
2020/01/15 02:34:22;;;;;;;5.1;3.2;;;;;;;1.33;63.43848;940.0436;;;;
2020/01/15 02:36:47;;;;;;;9.7;3.8;;;;;;;1.36;63.41992;940.1181;;;;
2020/01/15 02:39:12;;;;;;;10.6;4.6;;;;;;;1.33;63.15918;940.0647;;;;
2020/01/15 02:41:37;;;;;;;8.7;3.6;;;;;;;1.37;62.8623;940.0876;;;;
2020/01/15 02:44:03;;;;;;;7.1;3.4;;;;;;;1.18;62.67773;940.1334;;;;
2020/01/15 02:46:28;;;;;;;4.4;3;;;;;;;1.25;62.95508;940.1525;;;;
2020/01/15 02:48:53;;;;;;;5.8;3.7;;;;;;;1.33;63.20313;940.1691;;;;
2020/01/15 02:51:19;;;;;;;5.9;3.5;;;;;;;1.2;63.77539;940.2222;;;;
2020/01/15 02:53:44;;;;;;;6.6;3.9;;;;;;;1.05;64.65918;940.122;;;;
2020/01/15 02:56:09;;;;;;;7.4;3.9;;;;;;;1.01;64.84082;940.1898;;;;
2020/01/15 02:58:34;;;;;;;7.8;3.5;;;;;;;1.07;64.20313;940.0758;;;;
2020/01/15 03:01:00;;;;;;;6.8;3.6;;;;;;;1.2;64.00977;940.1721;;;;
2020/01/15 03:03:26;;;;;;;6;3.4;;;;;;;1.24;63.96094;940.1611;;;;
2020/01/15 03:05:51;;;;;;;8.5;3.6;;;;;;;1.16;64.20508;940.1551;;;;
2020/01/15 03:10:41;;;;;;;6.3;3;;;;;;;1.31;63.51367;940.2073;;;;
2020/01/15 03:13:07;;;;;;;4.1;2.5;;;;;;;1.28;63.20703;940.1289;;;;
2020/01/15 03:15:32;;;;;;;5.6;2.6;;;;;;;1.26;63.59473;940.0363;;;;
2020/01/15 03:17:57;;;;;;;1.7;1.2;;;;;;;1.6;57.38379;940.0497;;;;
2020/01/15 03:20:22;;;;;;;3.3;2.3;;;;;;;1.82;60.83789;940.0472;;;;
2020/01/15 03:22:47;;;;;;;3.9;2;;;;;;;1.67;61.09473;940.0894;;;;
2020/01/15 03:25:12;;;;;;;3.6;2.2;;;;;;;1.58;61.94434;940.1275;;;;
2020/01/15 03:27:37;;;;;;;5.4;3;;;;;;;1.29;63.53223;940.1795;;;;
2020/01/15 03:30:02;;;;;;;5.4;3;;;;;;;1.08;64.7627;940.1509;;;;
2020/01/15 03:32:27;;;;;;;5.8;3;;;;;;;1.04;65.03613;940.1262;;;;
2020/01/15 03:34:53;;;;;;;4.6;2.8;;;;;;;0.98;65.09375;940.0131;;;;
2020/01/15 03:37:18;;;;;;;5.5;2.9;;;;;;;1.08;64.97461;940.0917;;;;
2020/01/15 03:39:43;;;;;;;6.5;3;;;;;;;1.12;64.98047;940.0631;;;;
2020/01/15 03:42:08;;;;;;;4.7;3.3;;;;;;;1.18;64.97949;940.0196;;;;
2020/01/15 03:44:33;;;;;;;4;2.7;;;;;;;1.25;64.85645;939.9614;;;;
2020/01/15 03:46:58;;;;;;;6.6;3.8;;;;;;;1.27;64.14355;939.9702;;;;
2020/01/15 03:49:23;;;;;;;7.8;4.1;;;;;;;1.13;64.53613;939.9288;;;;
2020/01/15 03:51:48;;;;;;;8.6;4.5;;;;;;;0.93;65.27539;940.0044;;;;
2020/01/15 03:54:13;;;;;;;7.7;4.8;;;;;;;0.8;65.66895;940.0356;;;;
2020/01/15 03:56:39;;;;;;;6.5;3.9;;;;;;;0.78;65.43164;940.0089;;;;
2020/01/15 03:59:04;;;;;;;9.1;3.6;;;;;;;0.79;65.08691;940.0187;;;;
2020/01/15 04:02:29;;;;;;;9;4.2;;;;;;;0.81;64.82129;939.9352;;;;
2020/01/15 04:04:54;;;;;;;10.7;4.6;;;;;;;0.8;64.69727;939.9086;;;;
2020/01/15 04:07:19;;;;;;;11.7;5.6;;;;;;;0.81;64.62109;939.899;;;;
2020/01/15 04:09:45;;;;;;;7.8;3.5;;;;;;;0.8;64.41895;939.8105;;;;
2020/01/15 04:12:10;;;;;;;6.4;3.1;;;;;;;0.88;64.31934;939.8712;;;;
2020/01/15 04:14:35;;;;;;;9.1;3.4;;;;;;;1.06;64.03418;939.8621;;;;
2020/01/15 04:17:00;;;;;;;6.4;3.2;;;;;;;1.12;63.24902;939.8364;;;;
2020/01/15 04:19:25;;;;;;;6.9;3.3;;;;;;;1;63.64453;939.9034;;;;
2020/01/15 04:21:50;;;;;;;7.2;3.8;;;;;;;0.93;63.92383;939.9473;;;;
2020/01/15 04:24:15;;;;;;;10;3.6;;;;;;;0.88;64.43066;939.9395;;;;
2020/01/15 04:26:40;;;;;;;9.6;4.2;;;;;;;0.87;64.33887;939.945;;;;
2020/01/15 04:29:05;;;;;;;19.9;5.8;;;;;;;0.72;64.96387;939.9775;;;;
2020/01/15 04:31:31;;;;;;;15.3;5.6;;;;;;;0.75;65.13672;940.0081;;;;
2020/01/15 04:34:10;;;;;;;13.7;4.9;;;;;;;0.93;64.80664;940.0608;;;;
2020/01/15 04:36:21;;;;;;;6.7;3.4;;;;;;;0.93;64.89551;940.0081;;;;
2020/01/15 04:38:46;;;;;;;6.8;3.2;;;;;;;0.74;65.05762;940.0062;;;;
2020/01/15 04:41:11;;;;;;;7;3.1;;;;;;;0.66;65.65723;940.0108;;;;
2020/01/15 04:43:36;;;;;;;7.2;3.9;;;;;;;0.62;66.15332;940.0533;;;;
2020/01/15 04:46:01;;;;;;;8.1;3.4;;;;;;;0.53;66.42969;940.0582;;;;
2020/01/15 04:48:26;;;;;;;5.9;3.6;;;;;;;0.48;66.64355;940.0304;;;;
2020/01/15 04:50:51;;;;;;;13.9;5.7;;;;;;;0.55;66.47656;940.0294;;;;
2020/01/15 04:53:16;;;;;;;28.9;8.9;;;;;;;0.64;66.3252;940.0076;;;;
2020/01/15 04:55:41;;;;;;;28.9;11;;;;;;;0.73;66.07031;940.0441;;;;
2020/01/15 04:58:06;;;;;;;18.8;7.6;;;;;;;0.84;67.39453;940.1266;;;;
2020/01/15 05:00:32;;;;;;;24;9.5;;;;;;;0.92;65.66406;940.1459;;;;
2020/01/15 05:02:57;;;;;;;18.7;9;;;;;;;0.81;65.79297;940.1439;;;;
2020/01/15 05:05:22;;;;;;;14.1;7;;;;;;;0.68;66.36426;940.2249;;;;
2020/01/15 05:07:47;;;;;;;13.2;7.4;;;;;;;0.79;66.54785;940.1884;;;;
2020/01/15 05:10:12;;;;;;;15;7.6;;;;;;;0.89;66.14063;940.272;;;;
2020/01/15 05:12:37;;;;;;;27.1;8.8;;;;;;;0.87;66.03516;940.257;;;;
2020/01/15 05:15:02;;;;;;;18.8;8;;;;;;;0.56;66.80176;940.3158;;;;
2020/01/15 05:17:28;;;;;;;22.9;11.4;;;;;;;0.49;67.21387;940.3661;;;;
2020/01/15 05:19:53;;;;;;;19.7;10.6;;;;;;;0.58;67.16211;940.3331;;;;
2020/01/15 05:22:18;;;;;;;17;8.2;;;;;;;0.64;67.10645;940.3671;;;;
2020/01/15 05:24:44;;;;;;;21.1;10.1;;;;;;;0.48;67.625;940.3336;;;;
2020/01/15 05:27:09;;;;;;;20.6;9.6;;;;;;;0.37;67.87695;940.3524;;;;
2020/01/15 05:29:34;;;;;;;40.6;20.6;;;;;;;0.2;68.5625;940.3484;;;;
2020/01/15 05:31:59;;;;;;;40.1;19.1;;;;;;;0.2;68.94043;940.3211;;;;
2020/01/15 05:34:24;;;;;;;40.6;17.3;;;;;;;0.28;68.75293;940.3123;;;;
2020/01/15 05:36:49;;;;;;;27.4;14.4;;;;;;;0.35;68.69727;940.3549;;;;
2020/01/15 05:39:14;;;;;;;28.7;13.1;;;;;;;0.53;68.02441;940.3488;;;;
2020/01/15 05:41:39;;;;;;;27.6;12;;;;;;;0.51;67.99902;940.3652;;;;
2020/01/15 05:44:04;;;;;;;25.2;11;;;;;;;0.49;67.88379;940.3819;;;;
2020/01/15 05:46:29;;;;;;;18.1;9.1;;;;;;;0.53;67.74609;940.3973;;;;
2020/01/15 05:48:54;;;;;;;13.6;7.5;;;;;;;0.54;67.59082;940.379;;;;
2020/01/15 05:51:45;;;;;;;14;9;;;;;;;0.56;67.62695;940.3384;;;;
2020/01/15 05:53:48;;;;;;;24.9;11.1;;;;;;;0.32;68.35938;940.3549;;;;
2020/01/15 05:56:10;;;;;;;16.9;8.3;;;;;;;0.21;68.45313;940.3599;;;;
2020/01/15 05:58:35;;;;;;;12.8;7.6;;;;;;;0.12;68.91602;940.3094;;;;
2020/01/15 06:01:01;;;;;;;15.9;8.2;;;;;;;0.14;69.12109;940.3036;;;;
2020/01/15 06:03:25;;;;;;;14;7.4;;;;;;;0.14;69.13184;940.2798;;;;
2020/01/15 06:05:50;;;;;;;15.8;8.6;;;;;;;0.08;69.02148;940.2626;;;;
2020/01/15 06:08:15;;;;;;;17.9;8.3;;;;;;;0.11;69.13867;940.2269;;;;
2020/01/15 06:10:41;;;;;;;15.7;7.9;;;;;;;0.16;68.59961;940.2458;;;;
2020/01/15 06:13:06;;;;;;;15.7;7.3;;;;;;;0.27;68.42969;940.1838;;;;
2020/01/15 06:15:31;;;;;;;18.7;7.8;;;;;;;0.39;68.31445;940.2043;;;;
2020/01/15 06:17:56;;;;;;;23;13.7;;;;;;;0.48;67.68164;940.2208;;;;
2020/01/15 06:20:22;;;;;;;25.9;13.5;;;;;;;0.44;68.10059;940.1642;;;;
2020/01/15 06:22:47;;;;;;;25.1;12.1;;;;;;;0.38;68.11133;940.1803;;;;
2020/01/15 06:25:18;;;;;;;25.5;13.3;;;;;;;0.27;68.35059;940.218;;;;
2020/01/15 06:27:43;;;;;;;22.9;12;;;;;;;0.24;68.32324;940.1218;;;;
2020/01/15 06:30:08;;;;;;;18.1;9.9;;;;;;;0.24;67.97754;940.1356;;;;
2020/01/15 06:32:34;;;;;;;26.1;12.5;;;;;;;0.21;68.29688;940.0842;;;;
2020/01/15 06:34:59;;;;;;;24.1;14.1;;;;;;;0.22;68.2207;940.1561;;;;
2020/01/15 06:37:24;;;;;;;22.8;12.1;;;;;;;0.26;68.00293;940.1266;;;;
2020/01/15 06:39:49;;;;;;;18.5;10.7;;;;;;;0.29;67.875;940.108;;;;
2020/01/15 06:42:14;;;;;;;24.1;11.9;;;;;;;0.36;69.53711;940.1176;;;;
2020/01/15 06:44:39;;;;;;;34.3;17.4;;;;;;;0.45;67.81055;940.0949;;;;
2020/01/15 06:47:04;;;;;;;32.5;17.9;;;;;;;0.5;67.3623;940.1106;;;;
2020/01/15 06:49:29;;;;;;;27.6;14.3;;;;;;;0.57;66.30273;940.0595;;;;
2020/01/15 06:51:55;;;;;;;49.1;18.6;;;;;;;0.63;66.8584;940.1353;;;;
2020/01/15 06:54:20;;;;;;;25.7;13.5;;;;;;;0.7;66.38965;940.116;;;;
2020/01/15 06:56:45;;;;;;;29.6;15.7;;;;;;;0.75;66.07422;940.1216;;;;
2020/01/15 06:59:12;;;;;;;36.3;19.4;;;;;;;0.85;65.52051;940.0876;;;;
2020/01/15 07:01:35;;;;;;;38.9;21.7;;;;;;;0.96;64.86621;940.1501;;;;
2020/01/15 07:04:00;;;;;;;36.8;19.4;;;;;;;0.9;65.08301;940.1655;;;;
2020/01/15 07:06:25;;;;;;;35.7;17.6;;;;;;;0.8;65.59082;940.0911;;;;
2020/01/15 07:08:50;;;;;;;35;16.1;;;;;;;0.74;67.28809;940.1894;;;;
2020/01/15 07:11:15;;;;;;;32.4;16.2;;;;;;;0.65;66.96094;940.1365;;;;
2020/01/15 07:13:41;;;;;;;31;13.9;;;;;;;0.71;66.7373;940.0485;;;;
2020/01/15 07:17:03;;;;;;;26.5;10.5;;;;;;;0.73;66.43945;939.9634;;;;
2020/01/15 07:18:31;;;;;;;22.2;9.4;;;;;;;0.63;66.5791;940.0309;;;;
2020/01/15 07:23:52;;;;;;;25.2;11.5;;;;;;;0.78;66.50293;940.0015;;;;
2020/01/15 07:30:36;;;;;;;26.1;11.5;;;;;;;0.83;66.28711;939.8844;;;;
2020/01/15 07:33:02;;;;;;;24.7;12.2;;;;;;;0.77;66.36719;939.8734;;;;
2020/01/15 07:35:27;;;;;;;25.1;11.5;;;;;;;0.77;68.91211;939.8922;;;;
2020/01/15 07:37:52;;;;;;;23.6;10.3;;;;;;;0.84;67.87402;939.9118;;;;
2020/01/15 07:40:18;;;;;;;20.9;9.1;;;;;;;0.78;66.65918;939.8772;;;;
2020/01/15 07:42:43;;;;;;;18.7;8.1;;;;;;;0.75;66.54297;939.8171;;;;
2020/01/15 07:45:08;;;;;;;19.1;7.9;;;;;;;0.89;66.29688;939.8513;;;;
2020/01/15 07:47:33;;;;;;;30.5;8.3;;;;;;;1.21;65.64258;939.8538;;;;
2020/01/15 07:49:59;;;;;;;24.5;7.9;;;;;;;1.57;64.5918;939.7238;;;;
2020/01/15 07:52:24;;;;;;;27.5;10;;;;;;;2.09;62.06445;939.8483;;;;
2020/01/15 07:54:49;;;;;;;40.5;13.5;;;;;;;2.73;59.8584;939.9042;;;;
2020/01/15 07:57:15;;;;;;;19.8;9.4;;;;;;;3.55;56.58203;939.9141;;;;
2020/01/15 07:59:40;;;;;;;23.9;9.5;;;;;;;4.07;55.05176;939.9547;;;;
2020/01/15 08:02:05;;;;;;;18.1;7.8;;;;;;;5.09;52.1748;939.9944;;;;
2020/01/15 08:04:30;;;;;;;19.8;8;;;;;;;5.71;50.55762;940.0353;;;;
2020/01/15 08:06:55;;;;;;;24.5;9;;;;;;;6.33;49.2959;940.087;;;;
2020/01/15 08:09:20;;;;;;;27.3;9.8;;;;;;;6.96;46.87793;940.1459;;;;
2020/01/15 08:11:45;;;;;;;22.7;9;;;;;;;7.21;45.75;940.1862;;;;
2020/01/15 08:14:10;;;;;;;22.3;9.6;;;;;;;7.42;45.69336;940.1584;;;;
2020/01/15 08:16:36;;;;;;;24;10.3;;;;;;;8.22;43.83496;940.1752;;;;
2020/01/15 08:19:01;;;;;;;23.1;8.8;;;;;;;8.91;42.98438;940.1901;;;;
2020/01/15 08:21:25;;;;;;;18;7.9;;;;;;;9.22;42.41309;940.1955;;;;
2020/01/15 08:23:51;;;;;;;20.7;8.2;;;;;;;9.67;41.13477;940.2544;;;;
2020/01/15 08:26:16;;;;;;;37.5;9.6;;;;;;;9.57;40.66895;940.27;;;;
2020/01/15 08:28:41;;;;;;;28.4;9.7;;;;;;;9.39;41.15332;940.3175;;;;
2020/01/15 08:31:06;;;;;;;26.1;9.6;;;;;;;9.75;40.66406;940.2723;;;;
2020/01/15 08:33:31;;;;;;;35.3;10.7;;;;;;;9.66;40.56445;940.2757;;;;
2020/01/15 08:35:56;;;;;;;28.4;10;;;;;;;9.86;39.87598;940.2751;;;;
2020/01/15 08:38:22;;;;;;;36.3;9.8;;;;;;;9.55;40.17871;940.3317;;;;
2020/01/15 08:40:47;;;;;;;33.5;9.1;;;;;;;10.4;40.38281;940.3569;;;;
2020/01/15 08:43:12;;;;;;;33;9;;;;;;;11.37;38.36816;940.3423;;;;
2020/01/15 08:45:37;;;;;;;36.5;8.3;;;;;;;12.82;34.9502;940.35;;;;
2020/01/15 08:48:02;;;;;;;24.8;7.3;;;;;;;13.7;33.55957;940.3223;;;;
2020/01/15 08:50:27;;;;;;;30.9;7.4;;;;;;;14.49;31.97363;940.3416;;;;
2020/01/15 08:52:54;;;;;;;27.6;6.1;;;;;;;15.03;29.39453;940.3695;;;;
2020/01/15 08:55:19;;;;;;;36.8;6.7;;;;;;;14.09;30.4248;940.3477;;;;
2020/01/15 08:57:44;;;;;;;40.1;7.5;;;;;;;12.59;33.07324;940.3851;;;;
2020/01/15 09:00:09;;;;;;;18.3;5.7;;;;;;;10.7;35.91113;940.3875;;;;
2020/01/15 09:02:35;;;;;;;20.5;9;;;;;;;9.53;39.18555;940.3464;;;;
2020/01/15 09:05:00;;;;;;;25.8;9.1;;;;;;;8.66;41.24316;940.3677;;;;
2020/01/15 09:07:25;;;;;;;52.8;13.1;;;;;;;8.19;43.21875;940.3384;;;;
2020/01/15 09:09:51;;;;;;;35.6;10.8;;;;;;;7.69;44.66504;940.4098;;;;
2020/01/15 09:12:17;;;;;;;40.5;12.4;;;;;;;6.92;46.2168;940.4133;;;;
2020/01/15 09:14:42;;;;;;;59.3;14.1;;;;;;;6.35;48.22461;940.3906;;;;
2020/01/15 09:17:10;;;;;;;36.4;10.1;;;;;;;6.01;49.62207;940.3994;;;;
2020/01/15 09:19:33;;;;;;;41.1;9.9;;;;;;;5.9;50.89648;940.3823;;;;
2020/01/15 09:21:58;;;;;;;36.2;9.8;;;;;;;5.66;51.90723;940.3894;;;;
2020/01/15 09:24:23;;;;;;;25.2;7.7;;;;;;;5.56;50.96777;940.3803;;;;
2020/01/15 09:26:48;;;;;;;26.3;6.8;;;;;;;5.65;51.0918;940.423;;;;
2020/01/15 09:29:14;;;;;;;33.7;6.7;;;;;;;5.75;49.20703;940.4735;;;;
2020/01/15 09:31:56;;;;;;;15.5;4.3;;;;;;;5.75;48.38379;940.4364;;;;
2020/01/15 09:42:12;;;;;;;11;3.9;;;;;;;6.32;48.50488;940.479;;;;
2020/01/15 09:43:46;;;;;;;11.6;5;;;;;;;6.44;48.68652;940.5839;;;;
2020/01/15 09:46:11;;;;;;;27.2;10.5;;;;;;;6.54;47.71387;940.593;;;;
2020/01/15 09:48:36;;;;;;;16.4;7;;;;;;;6.59;48.25098;940.5572;;;;
2020/01/15 09:51:01;;;;;;;12.2;5.7;;;;;;;6.68;46.48535;940.4991;;;;
2020/01/15 09:53:26;;;;;;;26.4;6.6;;;;;;;6.68;46.8584;940.5363;;;;
2020/01/15 09:55:53;;;;;;;25.1;8.1;;;;;;;6.74;46.84277;940.5269;;;;
2020/01/15 09:58:18;;;;;;;31;8;;;;;;;6.86;46.65234;940.4822;;;;
2020/01/15 10:00:42;;;;;;;31.5;10.8;;;;;;;6.97;46.21094;940.4415;;;;
2020/01/15 10:03:19;;;;;;;28.5;8.6;;;;;;;7.09;45.86133;940.4822;;;;
2020/01/15 10:05:45;;;;;;;40.2;8.5;;;;;;;7.13;45.41113;940.3588;;;;
2020/01/15 10:08:10;;;;;;;25.9;6.1;;;;;;;7.12;45.43457;940.4244;;;;
2020/01/15 10:10:35;;;;;;;8.4;3;;;;;;;7.27;45.18848;940.433;;;;
2020/01/15 10:13:00;;;;;;;11.2;2.9;;;;;;;7.38;45.17773;940.427;;;;
2020/01/15 10:15:25;;;;;;;9.3;2.9;;;;;;;7.48;44.92773;940.4078;;;;
2020/01/15 10:17:50;;;;;;;13.8;3.7;;;;;;;7.5;43.45605;940.3638;;;;
2020/01/15 10:20:15;;;;;;;29;5;;;;;;;7.54;44.31055;940.3624;;;;
2020/01/15 10:22:41;;;;;;;80;10.5;;;;;;;7.58;44.84766;940.3459;;;;
2020/01/15 10:25:06;;;;;;;32.9;6.9;;;;;;;7.65;44.27734;940.3795;;;;
2020/01/15 10:27:31;;;;;;;13.9;4.9;;;;;;;7.76;43.00586;940.349;;;;
2020/01/15 10:29:56;;;;;;;20.9;5.7;;;;;;;7.87;42.71191;940.267;;;;
2020/01/15 10:32:21;;;;;;;11.5;4.6;;;;;;;8.01;42.69141;940.3091;;;;
2020/01/15 10:34:46;;;;;;;14.5;4.3;;;;;;;8.07;43.28711;940.3144;;;;
2020/01/15 10:37:11;;;;;;;10.5;3.4;;;;;;;8.13;43.65625;940.3578;;;;
2020/01/15 10:39:36;;;;;;;6.3;2.5;;;;;;;8.19;42.77637;940.3217;;;;
2020/01/15 10:42:01;;;;;;;3.8;2.1;;;;;;;8.3;40.87988;940.2349;;;;
2020/01/15 10:44:27;;;;;;;8.6;2.7;;;;;;;8.38;41.72754;940.2367;;;;
2020/01/15 10:46:53;;;;;;;11.7;2.9;;;;;;;8.35;42.81543;940.259;;;;
2020/01/15 10:49:18;;;;;;;10.1;3.3;;;;;;;8.39;44.48926;940.253;;;;
2020/01/15 10:51:43;;;;;;;9.3;3.4;;;;;;;8.47;44.32715;940.2547;;;;
2020/01/15 10:54:08;;;;;;;9.3;2.6;;;;;;;8.51;42.25195;940.1635;;;;
2020/01/15 10:56:33;;;;;;;7.1;2.6;;;;;;;8.6;41.5332;940.1099;;;;
2020/01/15 10:58:59;;;;;;;6.7;2.4;;;;;;;8.7;40.22363;940.0541;;;;
2020/01/15 11:01:25;;;;;;;8.2;2.5;;;;;;;8.77;41.02539;940.0672;;;;
2020/01/15 11:03:49;;;;;;;8.1;2.4;;;;;;;8.8;42.34863;940.0408;;;;
2020/01/15 11:06:14;;;;;;;7.7;2.8;;;;;;;8.85;40.59082;940.0222;;;;
2020/01/15 11:08:40;;;;;;;9.5;2.8;;;;;;;8.93;40.70117;939.9594;;;;
2020/01/15 11:11:05;;;;;;;9.2;2.7;;;;;;;9;40.78711;939.9885;;;;
2020/01/15 11:13:32;;;;;;;6.3;2.2;;;;;;;9.01;41.27637;939.9817;;;;
2020/01/15 11:15:57;;;;;;;6.7;2.4;;;;;;;9.08;41.08984;939.9807;;;;
2020/01/15 11:18:22;;;;;;;8.7;3.3;;;;;;;9.15;41.1084;939.8872;;;;
2020/01/15 11:20:47;;;;;;;11.8;3.4;;;;;;;9.2;40.62402;939.8539;;;;
2020/01/15 11:23:13;;;;;;;11.5;3.1;;;;;;;9.3;39.75684;939.8989;;;;
2020/01/15 11:25:38;;;;;;;12.5;2.9;;;;;;;9.43;39.37012;939.8472;;;;
2020/01/15 11:28:03;;;;;;;11.8;3.3;;;;;;;9.51;38.18066;939.827;;;;
2020/01/15 11:30:29;;;;;;;11.9;3.1;;;;;;;9.58;37.75488;939.8282;;;;
2020/01/15 11:32:53;;;;;;;11.1;3.1;;;;;;;9.64;37.67969;939.7434;;;;
2020/01/15 11:35:19;;;;;;;9.8;2.4;;;;;;;9.66;37.27051;939.8066;;;;
2020/01/15 11:37:44;;;;;;;12.8;3.2;;;;;;;9.76;37.16602;939.6633;;;;
2020/01/15 11:40:09;;;;;;;9.2;2;;;;;;;9.79;34.78613;939.7242;;;;
2020/01/15 11:42:34;;;;;;;4;1.7;;;;;;;9.93;33.83887;939.6875;;;;
2020/01/15 11:44:59;;;;;;;8.6;1.9;;;;;;;10.07;32.53906;939.6548;;;;
2020/01/15 11:47:24;;;;;;;9.7;2.1;;;;;;;10.26;32.23438;939.7167;;;;
2020/01/15 11:49:49;;;;;;;4.2;1.5;;;;;;;10.4;31.9248;939.728;;;;
2020/01/15 11:52:14;;;;;;;7.5;1.9;;;;;;;10.57;31.69727;939.6793;;;;
2020/01/15 11:54:39;;;;;;;17.6;2.5;;;;;;;10.68;32.02637;939.6204;;;;
2020/01/15 11:57:04;;;;;;;9.2;1.8;;;;;;;10.84;31.5459;939.6518;;;;
2020/01/15 11:59:29;;;;;;;4.6;1.9;;;;;;;10.96;31.64648;939.6579;;;;
2020/01/15 12:04:27;;;;;;;12.7;2.8;;;;;;;11.13;31.73828;939.6;;;;
2020/01/15 12:06:45;;;;;;;14;2.9;;;;;;;11.26;32.97266;939.5569;;;;
2020/01/15 12:09:10;;;;;;;10.9;2.6;;;;;;;11.31;33.84473;939.582;;;;
2020/01/15 12:11:35;;;;;;;9.2;2.3;;;;;;;11.37;33.94043;939.6064;;;;
2020/01/15 12:14:00;;;;;;;10.1;2.3;;;;;;;11.45;33.86719;939.5659;;;;
2020/01/15 12:16:25;;;;;;;8.2;2.2;;;;;;;11.45;32.5625;939.5323;;;;
2020/01/15 12:18:50;;;;;;;11.8;2.2;;;;;;;11.56;31.27734;939.5787;;;;
2020/01/15 12:21:21;;;;;;;6.4;1.8;;;;;;;11.64;30.32227;939.5046;;;;
2020/01/15 12:23:40;;;;;;;6.2;2.2;;;;;;;11.86;31.33398;939.5195;;;;
2020/01/15 12:26:06;;;;;;;11.6;2.7;;;;;;;11.98;31.51465;939.4963;;;;
2020/01/15 12:28:31;;;;;;;11.6;2.1;;;;;;;12.03;29.91406;939.5367;;;;
2020/01/15 12:30:56;;;;;;;3;1.2;;;;;;;11.78;28.27051;939.5023;;;;
2020/01/15 12:33:21;;;;;;;1.9;1.3;;;;;;;11.9;28.0957;939.5165;;;;
2020/01/15 12:35:47;;;;;;;2.5;1.2;;;;;;;12.05;27.80762;939.4897;;;;
2020/01/15 12:38:12;;;;;;;3.3;1.7;;;;;;;12.15;28.11133;939.4895;;;;
2020/01/15 12:40:39;;;;;;;4;1.6;;;;;;;12.14;27.73242;939.4144;;;;
2020/01/15 12:43:03;;;;;;;3.3;1.4;;;;;;;12.25;28.42773;939.4305;;;;
2020/01/15 12:45:28;;;;;;;3;1.2;;;;;;;12.31;27.70898;939.4163;;;;
2020/01/15 12:47:53;;;;;;;2.7;1.2;;;;;;;12.29;27.8457;939.3836;;;;
2020/01/15 12:50:19;;;;;;;2.8;1.1;;;;;;;12.34;27.34473;939.4356;;;;
2020/01/15 12:52:44;;;;;;;3.7;1.2;;;;;;;12.25;28.2666;939.432;;;;
2020/01/15 12:55:09;;;;;;;2.9;1.3;;;;;;;12.34;27.96387;939.4292;;;;
2020/01/15 12:57:36;;;;;;;2.4;1.3;;;;;;;12.46;27.4668;939.3702;;;;
2020/01/15 13:00:01;;;;;;;2.6;1.2;;;;;;;12.61;27.49902;939.3675;;;;
2020/01/15 13:02:26;;;;;;;4.9;1.3;;;;;;;12.63;27.46582;939.4102;;;;
2020/01/15 13:04:52;;;;;;;3.1;1.3;;;;;;;12.63;27.68359;939.4469;;;;
2020/01/15 13:07:24;;;;;;;4.4;1.3;;;;;;;12.67;27.28418;939.4079;;;;
2020/01/15 13:09:44;;;;;;;3.6;1.3;;;;;;;12.68;27.12402;939.4255;;;;
2020/01/15 13:12:07;;;;;;;3.6;1.2;;;;;;;12.68;27.15918;939.4127;;;;
2020/01/15 13:14:33;;;;;;;8.3;2.7;;;;;;;12.56;30.83398;939.4096;;;;
2020/01/15 13:16:58;;;;;;;10.7;2.3;;;;;;;12.59;30.66406;939.4073;;;;
2020/01/15 13:19:23;;;;;;;15.2;2.5;;;;;;;12.7;31.21094;939.4183;;;;
2020/01/15 13:21:49;;;;;;;6.6;2.5;;;;;;;12.77;30.5625;939.4018;;;;
2020/01/15 13:24:14;;;;;;;6.4;2.1;;;;;;;12.9;30.45605;939.4472;;;;
2020/01/15 13:26:39;;;;;;;9.4;2.7;;;;;;;12.92;30.22852;939.4472;;;;
2020/01/15 13:29:04;;;;;;;10.4;3;;;;;;;12.93;30.7334;939.476;;;;
2020/01/15 13:31:29;;;;;;;9.2;2.8;;;;;;;13.09;30.8252;939.507;;;;
2020/01/15 13:33:54;;;;;;;7.3;2.5;;;;;;;13.04;29.31738;939.5005;;;;
2020/01/15 13:36:19;;;;;;;9.3;2.7;;;;;;;13.02;29.63867;939.5253;;;;
2020/01/15 13:38:44;;;;;;;22.4;4.1;;;;;;;13.24;29.90625;939.4678;;;;
2020/01/15 13:41:10;;;;;;;18.9;3.7;;;;;;;13.52;29.87793;939.5706;;;;
2020/01/15 13:43:34;;;;;;;15.9;4.5;;;;;;;13.71;29.40918;939.5261;;;;
2020/01/15 13:46:00;;;;;;;15.4;4.6;;;;;;;13.97;29.59961;939.5485;;;;
2020/01/15 13:48:25;;;;;;;12.5;3.8;;;;;;;14.26;28.77832;939.6158;;;;
2020/01/15 13:50:50;;;;;;;14.8;3.5;;;;;;;14.4;28.40723;939.6017;;;;
2020/01/15 13:53:15;;;;;;;14.3;3.9;;;;;;;14.58;28.48828;939.5327;;;;
2020/01/15 13:55:40;;;;;;;14.7;4.1;;;;;;;14.94;27.72754;939.6063;;;;
2020/01/15 13:58:07;;;;;;;10.7;4.4;;;;;;;15.48;26.66406;939.6279;;;;
2020/01/15 14:00:32;;;;;;;20.1;5.1;;;;;;;16.65;26.27246;939.6606;;;;
2020/01/15 14:02:57;;;;;;;12.3;3.8;;;;;;;18.32;23.71094;939.6847;;;;
2020/01/15 14:05:22;;;;;;;7.8;2.5;;;;;;;19.35;21.97168;939.7231;;;;
2020/01/15 14:07:48;;;;;;;37.6;4.9;;;;;;;20.11;21.56641;939.7051;;;;
2020/01/15 14:10:13;;;;;;;9.8;3.4;;;;;;;20.17;21.63965;939.7156;;;;
2020/01/15 14:12:38;;;;;;;11.2;3.8;;;;;;;20.29;21.77441;939.7307;;;;
2020/01/15 14:15:03;;;;;;;11.6;3.4;;;;;;;20.71;21.20996;939.7949;;;;
2020/01/15 14:17:28;;;;;;;14.1;3.7;;;;;;;20.89;21.14844;939.8704;;;;
2020/01/15 14:19:53;;;;;;;9.8;5;;;;;;;20.63;21.17188;939.8552;;;;
2020/01/15 14:22:20;;;;;;;20.3;5;;;;;;;19.2;22.58203;939.8892;;;;
2020/01/15 14:24:45;;;;;;;15;4.8;;;;;;;16.68;25.99707;939.9275;;;;
2020/01/15 14:27:10;;;;;;;20.1;6.5;;;;;;;15.04;28.45996;940.0183;;;;
2020/01/15 14:29:36;;;;;;;24.6;7.1;;;;;;;14.05;30.69727;940.0619;;;;
2020/01/15 14:32:01;;;;;;;15.5;5.2;;;;;;;14.94;29.5498;940.117;;;;
2020/01/15 14:34:29;;;;;;;15.5;6.4;;;;;;;16.66;27.25684;940.1156;;;;
2020/01/15 14:36:54;;;;;;;20.3;6.1;;;;;;;18.01;26.12207;940.1415;;;;
2020/01/15 14:39:21;;;;;;;19.6;6.4;;;;;;;18.33;24.60645;940.2319;;;;
2020/01/15 14:41:45;;;;;;;23.7;7;;;;;;;17.34;26.18555;940.2686;;;;